Página principal
METAR-TAF:

METAR-TAF

Aeroportos :

Niamey, Níger

Aeroporto Internacional Diori Hamani

latitude: 13-29N, longitude: 002-10E, altura: 223 m

Observação actual do tempo

O boletim foi feito há 53 minutos, às 23:00 UTC
Vento 3 kt com direcção variável
Temperatura 27°C
Humidade 74%
Pressão 1012 hPa
Visibilidade 10 km ou mais
sem nuvens abaixo de 1500 metros e sem cumulonimbus

METAR: DRRN 182300Z VRB03KT CAVOK 27/22 Q1012 NOSIG

Hora: 00:53 (23:53 UTC)

Previsão

O boletim foi feito há 53 minutos, às 23:00 UTC
Previsão válida de 19 às 00 UTC a 20 às 06 UTC
Vento 6 kt de sul
Visibilidade 10 km ou mais
sem nuvens abaixo de 1500 metros e sem cumulonimbus
Probabilidade 30% :
Temporariamente
de 19 às 14 UTC a 19 às 20 UTC
Visibilidade: 4000 m
Nuvens dispersasa uma altura de 2000 ft
Poucas nuvensa uma altura de 2600 ft, Cumulonimbus.

TAF: DRRN 182300Z 1900/2006 18006KT CAVOK PROB30 TEMPO 1914/1920 4000 TSSHRA SCT020 FEW026CB

Observações e previsões do tempo de mais de 4000 aeroportos (mensagens METAR e TAF).

As estações disponíveis são os pontos amarelos e vermelhos sobre o mapa.

Mova o rato sobre o mapa para ver o nome da estação.

Depois clique no ponto para visualizar as observações e previsões meteorológicas.

Para alterar o mapa : clique nos botões verdes com uma cruz preta para aumentar o zoom; no botão verde com uma pitada de zoom; ou nas setas verdes para mapas adjacentes.


METAR-TAF: